Time;durP1;ratioP1;P1;durP2;ratioP2;P2;SDS_P1;SDS_P2;PMS_P1;PMS_P2;Temp;Humidity;BMP_temperature;BMP_pressure;BME280_temperature;BME280_humidity;BME280_pressure;Samples;Min_cycle;Max_cycle;Signal;HPM_P1;HPM_P2
2023/12/23 00:02:31;;;;;;;55.17;3.80;;;;;;;2.08;100.00;98583.94;10206892;29;20063;-69
2023/12/23 00:07:32;;;;;;;83.63;3.95;;;;;;;2.07;100.00;98577.06;10206696;29;20039;-69
2023/12/23 00:12:32;;;;;;;112.30;5.20;;;;;;;1.92;100.00;98562.94;10207740;29;20045;-69
2023/12/23 00:17:33;;;;;;;213.90;6.57;;;;;;;1.89;100.00;98569.28;10207468;29;20102;-69
2023/12/23 00:22:34;;;;;;;147.65;5.63;;;;;;;1.75;100.00;98552.34;10206856;29;20054;-69
2023/12/23 00:27:35;;;;;;;16.67;1.92;;;;;;;1.64;100.00;98567.50;10206880;29;20051;-69
2023/12/23 00:32:36;;;;;;;42.38;2.65;;;;;;;1.60;100.00;98578.28;10206657;29;20518;-70
2023/12/23 00:37:36;;;;;;;30.40;3.30;;;;;;;1.62;100.00;98559.00;10204778;28;20138;-69
2023/12/23 00:42:37;;;;;;;22.50;2.40;;;;;;;1.36;100.00;98510.91;10206263;29;20102;-68
2023/12/23 00:47:38;;;;;;;18.33;2.10;;;;;;;1.58;100.00;98538.34;10205277;29;20126;-69
2023/12/23 00:52:39;;;;;;;29.83;2.40;;;;;;;1.22;100.00;98469.63;10205872;29;20043;-69
2023/12/23 00:57:40;;;;;;;21.17;2.15;;;;;;;1.49;100.00;98528.00;10206633;29;20047;-68
2023/12/23 01:02:41;;;;;;;16.13;2.22;;;;;;;1.58;100.00;98534.91;10205497;29;20055;-68
2023/12/23 01:07:42;;;;;;;17.98;2.50;;;;;;;1.58;100.00;98512.16;10212123;29;20036;-69
2023/12/23 01:12:43;;;;;;;22.63;3.20;;;;;;;1.31;100.00;98460.03;10213284;29;20489;-68
2023/12/23 01:17:44;;;;;;;23.02;3.00;;;;;;;1.69;100.00;98505.84;10212144;29;20122;-68
2023/12/23 01:22:45;;;;;;;38.53;3.33;;;;;;;1.68;100.00;98500.78;10212312;29;20058;-68
2023/12/23 01:27:46;;;;;;;76.03;4.15;;;;;;;1.69;100.00;98502.44;10212067;29;20053;-68
2023/12/23 01:32:47;;;;;;;70.00;3.80;;;;;;;1.57;100.00;98526.25;10211688;29;20101;-69
2023/12/23 01:37:48;;;;;;;118.55;4.53;;;;;;;1.58;100.00;98514.78;10210843;28;20129;-69
2023/12/23 01:42:48;;;;;;;34.70;3.33;;;;;;;1.52;100.00;98525.06;10212025;29;20075;-68
2023/12/23 01:47:50;;;;;;;16.17;2.30;;;;;;;1.51;100.00;98544.38;10210882;29;20050;-68
2023/12/23 01:52:56;;;;;;;29.73;2.15;;;;;;;1.23;100.00;98492.22;10210274;29;20090;-68
2023/12/23 01:57:56;;;;;;;41.05;2.88;;;;;;;1.46;100.00;98528.31;10211349;29;20082;-69
2023/12/23 02:02:59;;;;;;;44.17;3.28;;;;;;;1.29;100.00;98522.97;10211531;29;20082;-68
2023/12/23 02:08:00;;;;;;;35.65;2.42;;;;;;;1.37;100.00;98532.66;10210987;29;20052;-68
2023/12/23 02:13:32;;;;;;;31.88;2.97;;;;;;;1.47;100.00;98533.41;10210265;29;20202;-69
2023/12/23 02:18:33;;;;;;;27.17;3.05;;;;;;;1.35;100.00;98511.09;10170685;29;20083;-68
2023/12/23 02:23:34;;;;;;;37.70;3.13;;;;;;;1.39;100.00;98508.97;10171231;29;20393;-68
2023/12/23 02:28:35;;;;;;;48.65;4.07;;;;;;;1.34;100.00;98512.03;10170415;29;20094;-68
2023/12/23 02:33:36;;;;;;;65.13;3.55;;;;;;;1.36;100.00;98515.34;10171286;29;20036;-68
2023/12/23 02:38:37;;;;;;;63.70;3.45;;;;;;;1.13;100.00;98453.06;10170413;29;20474;-69
2023/12/23 02:43:37;;;;;;;52.80;3.45;;;;;;;1.19;100.00;98467.31;10170664;29;20051;-68
2023/12/23 02:48:38;;;;;;;49.88;3.50;;;;;;;1.24;100.00;98490.41;10168735;29;20506;-68
2023/12/23 02:53:39;;;;;;;58.97;4.00;;;;;;;1.18;100.00;98459.63;10170577;29;20036;-69
2023/12/23 02:58:40;;;;;;;23.67;2.92;;;;;;;1.01;100.00;98429.94;10170011;29;20128;-68
2023/12/23 03:03:41;;;;;;;61.33;4.70;;;;;;;1.26;100.00;98452.66;10170044;29;20052;-68
2023/12/23 03:08:42;;;;;;;76.38;3.60;;;;;;;0.98;100.00;98445.94;10170063;29;20132;-69
2023/12/23 03:13:42;;;;;;;62.55;3.78;;;;;;;1.14;100.00;98482.66;10169129;29;20044;-69
2023/12/23 03:18:46;;;;;;;77.80;5.43;;;;;;;0.95;100.00;98449.66;10168587;29;20462;-68
2023/12/23 03:23:47;;;;;;;139.60;5.97;;;;;;;0.85;100.00;98415.78;10169929;29;20545;-68
2023/12/23 03:28:48;;;;;;;91.60;4.10;;;;;;;0.47;100.00;98369.97;10167790;29;20174;-69
2023/12/23 03:33:49;;;;;;;106.38;5.32;;;;;;;0.91;100.00;98430.88;10168596;29;20043;-68
2023/12/23 03:38:49;;;;;;;114.28;4.40;;;;;;;0.73;100.00;98392.69;10168861;29;20067;-68
2023/12/23 03:43:50;;;;;;;17.83;2.70;;;;;;;0.83;100.00;98409.88;10206453;28;20070;-68
2023/12/23 03:48:51;;;;;;;107.82;5.00;;;;;;;0.89;100.00;98414.50;10415113;28;20041;-69
2023/12/23 03:53:52;;;;;;;92.90;4.45;;;;;;;0.67;100.00;98408.00;10414139;28;20042;-69
2023/12/23 03:58:52;;;;;;;59.63;3.60;;;;;;;0.78;100.00;98406.94;10331357;28;20075;-69
2023/12/23 04:03:53;;;;;;;72.78;3.47;;;;;;;0.66;100.00;98371.59;10206947;29;20048;-68
2023/12/23 04:08:55;;;;;;;37.97;3.33;;;;;;;0.49;100.00;98320.19;10206730;29;20048;-69
2023/12/23 04:13:56;;;;;;;33.30;2.85;;;;;;;0.82;100.00;98355.16;10206727;29;20047;-69
2023/12/23 04:18:56;;;;;;;73.30;3.72;;;;;;;0.75;100.00;98334.06;10206328;29;20040;-67
2023/12/23 04:23:58;;;;;;;29.13;3.78;;;;;;;0.78;100.00;98354.66;10205363;29;20048;-67
2023/12/23 04:28:59;;;;;;;56.38;3.65;;;;;;;0.83;100.00;98368.06;10265320;28;20053;-67
2023/12/23 04:34:00;;;;;;;11.05;3.05;;;;;;;0.90;100.00;98378.75;10413611;28;20539;-67
2023/12/23 04:39:04;;;;;;;7.25;2.65;;;;;;;0.93;100.00;98381.06;10277930;28;20091;-67
2023/12/23 04:44:07;;;;;;;26.38;2.60;;;;;;;0.84;100.00;98369.72;10205986;29;20051;-69
2023/12/23 04:49:08;;;;;;;36.78;3.10;;;;;;;0.39;100.00;98312.44;10206751;29;20055;-67
2023/12/23 04:54:09;;;;;;;27.25;2.85;;;;;;;0.70;100.00;98357.22;10206113;29;20415;-67
2023/12/23 04:59:09;;;;;;;50.33;4.15;;;;;;;0.35;100.00;98311.09;10205571;29;20036;-68
2023/12/23 05:04:10;;;;;;;43.60;3.22;;;;;;;0.31;100.00;98289.69;10205859;29;20123;-69
2023/12/23 05:09:11;;;;;;;27.60;2.80;;;;;;;0.63;100.00;98348.38;10206530;29;20048;-67
2023/12/23 05:14:12;;;;;;;68.47;3.72;;;;;;;0.61;100.00;98342.47;10205138;29;20119;-67
2023/12/23 05:19:13;;;;;;;30.80;3.15;;;;;;;0.41;100.00;98284.38;10204961;29;20052;-67
2023/12/23 05:24:14;;;;;;;156.43;5.88;;;;;;;0.61;100.00;98316.34;10204767;29;20146;-68
2023/12/23 05:29:14;;;;;;;89.32;4.70;;;;;;;0.28;100.00;98255.25;10206015;29;20074;-68
2023/12/23 05:34:16;;;;;;;93.43;3.70;;;;;;;0.74;100.00;98310.69;10204515;29;20044;-68
2023/12/23 05:39:17;;;;;;;51.97;3.85;;;;;;;0.82;100.00;98316.78;10205134;28;20797;-68
2023/12/23 05:44:17;;;;;;;17.42;2.92;;;;;;;0.94;100.00;98303.44;10205089;29;20047;-68
2023/12/23 05:49:18;;;;;;;40.50;3.53;;;;;;;0.99;100.00;98295.94;10206485;29;20048;-68
2023/12/23 05:54:19;;;;;;;59.95;3.85;;;;;;;1.13;100.00;98327.53;10210799;29;20090;-68
2023/12/23 05:59:20;;;;;;;40.47;4.47;;;;;;;1.16;100.00;98315.94;10321594;28;20045;-68
2023/12/23 06:04:21;;;;;;;35.40;3.92;;;;;;;1.20;100.00;98283.28;10319687;28;20048;-67
2023/12/23 06:09:21;;;;;;;44.45;4.75;;;;;;;1.23;100.00;98279.53;10361189;28;20098;-69
2023/12/23 06:14:22;;;;;;;40.22;3.97;;;;;;;1.32;100.00;98276.78;10210278;29;20074;-69
2023/12/23 06:19:23;;;;;;;56.88;4.25;;;;;;;1.27;100.00;98258.13;10288664;28;20432;-70
2023/12/23 06:24:24;;;;;;;24.58;3.90;;;;;;;1.48;100.00;98267.31;10270994;28;20130;-70
2023/12/23 06:29:25;;;;;;;30.40;3.30;;;;;;;1.57;100.00;98254.06;10326058;28;20120;-71
2023/12/23 06:34:26;;;;;;;99.47;5.00;;;;;;;1.47;100.00;98229.06;10417774;28;20041;-69
2023/12/23 06:39:26;;;;;;;44.97;3.67;;;;;;;1.41;100.00;98193.06;10417874;28;20068;-69
2023/12/23 06:44:27;;;;;;;80.03;5.18;;;;;;;1.55;100.00;98202.88;10416759;28;20052;-70
2023/12/23 06:49:28;;;;;;;23.60;3.58;;;;;;;1.65;100.00;98214.03;10417148;28;20120;-72
2023/12/23 06:54:29;;;;;;;23.90;3.10;;;;;;;1.64;100.00;98204.50;10337892;28;20037;-69
2023/12/23 06:59:30;;;;;;;118.90;6.43;;;;;;;1.62;100.00;98190.81;10416589;28;20126;-68
2023/12/23 07:04:31;;;;;;;19.20;5.05;;;;;;;1.73;100.00;98203.53;10416770;28;20040;-68
2023/12/23 07:09:32;;;;;;;24.38;3.88;;;;;;;1.82;100.00;98193.88;10416538;28;20048;-68
2023/12/23 07:14:33;;;;;;;29.77;4.28;;;;;;;1.99;100.00;98192.88;10415767;28;20056;-69
2023/12/23 07:19:34;;;;;;;17.48;3.97;;;;;;;1.86;100.00;98162.97;10416887;28;20067;-70
2023/12/23 07:24:34;;;;;;;5.60;3.70;;;;;;;2.19;100.00;98197.78;10415633;28;20124;-68
2023/12/23 07:29:39;;;;;;;49.08;4.45;;;;;;;2.20;100.00;98173.19;10415298;28;20115;-68
2023/12/23 07:34:40;;;;;;;30.73;3.40;;;;;;;2.16;100.00;98162.25;10299799;28;20118;-69
2023/12/23 07:39:41;;;;;;;23.67;3.40;;;;;;;2.07;100.00;98136.25;10222782;28;20465;-68
2023/12/23 07:44:42;;;;;;;11.85;4.47;;;;;;;2.00;100.00;98108.09;10405176;28;20042;-68
2023/12/23 07:49:42;;;;;;;6.57;3.50;;;;;;;2.16;100.00;98104.63;10345565;28;20435;-67
2023/12/23 07:54:43;;;;;;;14.13;3.75;;;;;;;1.60;100.00;97994.69;10207242;29;20046;-70
2023/12/23 07:59:45;;;;;;;5.53;3.50;;;;;;;2.28;100.00;98078.88;10205813;28;20059;-69
2023/12/23 08:04:45;;;;;;;5.57;3.40;;;;;;;2.16;100.00;98023.44;10206237;29;20122;-67
2023/12/23 08:09:46;;;;;;;7.93;4.38;;;;;;;2.50;100.00;98053.69;10206785;29;20586;-68
2023/12/23 08:14:47;;;;;;;11.00;4.22;;;;;;;2.54;100.00;98041.88;10206799;29;20071;-67
2023/12/23 08:19:48;;;;;;;7.55;4.05;;;;;;;2.69;100.00;98028.84;10206713;29;20538;-67
2023/12/23 08:24:48;;;;;;;6.13;3.70;;;;;;;2.53;100.00;97974.72;10206881;29;20054;-66
2023/12/23 08:29:49;;;;;;;7.35;4.05;;;;;;;2.91;100.00;98009.69;10206116;29;20043;-68
2023/12/23 08:34:50;;;;;;;6.35;3.53;;;;;;;2.89;100.00;97998.53;10206557;29;20039;-66
2023/12/23 08:39:53;;;;;;;6.68;4.40;;;;;;;2.91;100.00;97990.50;10206288;28;20063;-67
2023/12/23 08:44:53;;;;;;;7.85;4.40;;;;;;;2.86;100.00;98011.19;10207026;29;20094;-67
2023/12/23 08:49:54;;;;;;;9.27;4.38;;;;;;;2.23;100.00;97906.47;10205728;29;20519;-69
2023/12/23 08:54:55;;;;;;;6.47;4.68;;;;;;;2.84;100.00;97990.41;10205608;29;20123;-69
2023/12/23 08:59:56;;;;;;;7.82;5.10;;;;;;;2.79;100.00;97957.84;10206537;29;20078;-71
2023/12/23 09:04:57;;;;;;;7.07;4.22;;;;;;;2.68;100.00;97944.13;10206668;29;20067;-69
2023/12/23 09:09:58;;;;;;;7.80;4.90;;;;;;;2.81;100.00;97927.00;10205271;29;20044;-69
2023/12/23 09:14:59;;;;;;;7.88;4.75;;;;;;;2.77;100.00;97910.00;10205267;29;20055;-69
2023/12/23 09:20:00;;;;;;;7.85;4.93;;;;;;;2.91;100.00;97924.94;10205541;29;20044;-69
2023/12/23 09:25:01;;;;;;;8.80;4.90;;;;;;;2.88;100.00;97893.84;10207015;29;20039;-69
2023/12/23 09:30:02;;;;;;;9.70;5.10;;;;;;;3.07;100.00;97921.34;10212235;29;20044;-69
2023/12/23 09:35:03;;;;;;;11.95;4.30;;;;;;;3.18;100.00;97924.34;10302985;28;20077;-69
2023/12/23 09:40:04;;;;;;;8.93;4.35;;;;;;;3.22;100.00;97923.97;10352660;28;20070;-68
2023/12/23 09:45:06;;;;;;;6.82;4.10;;;;;;;3.28;100.00;97910.94;10211870;29;20058;-72
2023/12/23 09:50:07;;;;;;;8.13;4.40;;;;;;;3.33;100.00;97940.09;10211630;29;20139;-70
2023/12/23 09:55:10;;;;;;;9.93;3.97;;;;;;;3.21;100.00;97899.56;10211937;29;20480;-70
2023/12/23 10:00:12;;;;;;;10.20;3.63;;;;;;;3.41;100.00;97911.13;10211319;29;20048;-70
2023/12/23 10:05:12;;;;;;;6.90;3.63;;;;;;;3.56;100.00;97933.91;10211266;29;20047;-70
2023/12/23 10:10:13;;;;;;;5.03;3.13;;;;;;;3.78;100.00;97992.59;10211212;29;20044;-69
2023/12/23 10:15:14;;;;;;;7.30;2.92;;;;;;;3.82;100.00;98002.53;10210295;29;20039;-69
2023/12/23 10:20:15;;;;;;;5.45;3.17;;;;;;;3.79;100.00;98073.81;10210173;29;20044;-69
2023/12/23 10:25:16;;;;;;;4.93;3.40;;;;;;;3.67;100.00;98193.41;10210697;29;20043;-70
2023/12/23 10:30:20;;;;;;;6.35;3.40;;;;;;;3.58;100.00;98183.94;10210540;29;20047;-69
2023/12/23 10:35:24;;;;;;;12.07;3.90;;;;;;;3.45;100.00;98230.97;10209798;29;20047;-70
2023/12/23 10:40:28;;;;;;;4.95;3.20;;;;;;;3.33;100.00;98228.75;10210551;29;20063;-69
2023/12/23 10:45:31;;;;;;;5.93;3.35;;;;;;;3.20;100.00;98246.84;10209837;29;20647;-70
2023/12/23 10:50:33;;;;;;;5.78;3.10;;;;;;;3.08;100.00;98243.81;10209914;29;20052;-70
2023/12/23 10:55:38;;;;;;;4.72;3.00;;;;;;;2.88;100.00;98248.66;10210510;29;20036;-71
2023/12/23 11:00:39;;;;;;;6.25;2.72;;;;;;;3.02;100.00;98265.50;10209404;29;20123;-70
2023/12/23 11:05:42;;;;;;;5.05;2.60;;;;;;;2.97;100.00;98234.53;10318790;28;20080;-70
2023/12/23 11:10:44;;;;;;;4.55;2.40;;;;;;;2.96;100.00;98259.13;10360364;28;20133;-70
2023/12/23 11:15:46;;;;;;;5.40;3.17;;;;;;;2.73;100.00;98229.38;10208550;29;20058;-70
2023/12/23 11:20:49;;;;;;;3.75;2.60;;;;;;;3.03;100.00;98300.41;10281280;28;20080;-69
2023/12/23 11:25:50;;;;;;;4.07;2.58;;;;;;;3.12;100.00;98308.06;10415719;28;20131;-70
2023/12/23 11:30:56;;;;;;;4.03;2.53;;;;;;;3.19;100.00;98316.88;10415092;28;20458;-69
2023/12/23 11:35:58;;;;;;;7.50;2.20;;;;;;;3.19;100.00;98348.38;10273192;28;20070;-69
2023/12/23 11:40:59;;;;;;;5.10;2.70;;;;;;;3.05;100.00;98325.50;10208547;29;20060;-69
2023/12/23 11:46:00;;;;;;;8.77;4.10;;;;;;;3.09;100.00;98334.66;10208523;29;20043;-67
2023/12/23 11:51:01;;;;;;;4.88;2.88;;;;;;;2.79;100.00;98301.31;10209883;28;20412;-68
2023/12/23 11:56:04;;;;;;;5.07;2.80;;;;;;;3.10;100.00;98372.19;10320026;28;20092;-67
2023/12/23 12:01:05;;;;;;;4.68;2.33;;;;;;;2.96;100.00;98378.94;10413955;28;20497;-68
2023/12/23 12:06:07;;;;;;;4.97;3.05;;;;;;;3.24;100.00;98405.59;10350814;28;20054;-68
2023/12/23 12:11:07;;;;;;;3.97;2.65;;;;;;;3.29;100.00;98408.53;10262044;28;20122;-69
2023/12/23 12:16:09;;;;;;;5.13;2.75;;;;;;;3.24;100.00;98444.97;10207763;29;20130;-69
2023/12/23 12:21:10;;;;;;;3.60;2.30;;;;;;;2.77;100.00;98387.19;10207094;29;20052;-68
2023/12/23 12:26:11;;;;;;;4.20;2.60;;;;;;;3.09;100.00;98462.38;10210319;28;20504;-68
2023/12/23 12:31:14;;;;;;;3.90;2.60;;;;;;;3.05;100.00;98442.69;10287448;28;20069;-69
2023/12/23 12:36:16;;;;;;;8.45;3.00;;;;;;;2.92;100.00;98436.16;10227601;28;20048;-69
2023/12/23 12:41:17;;;;;;;5.15;2.92;;;;;;;3.00;100.00;98437.13;10233255;28;20047;-69
2023/12/23 12:46:18;;;;;;;6.00;2.60;;;;;;;2.88;100.00;98429.59;10259853;28;20047;-68
2023/12/23 12:51:19;;;;;;;5.80;2.83;;;;;;;3.06;100.00;98467.94;10246077;28;20040;-68
2023/12/23 12:56:20;;;;;;;41.00;17.40;;;;;;;2.77;100.00;98405.53;10224074;28;20067;-68
2023/12/23 13:01:22;;;;;;;73.05;27.27;;;;;;;2.98;100.00;98408.44;10284876;28;20057;-69
2023/12/23 13:06:22;;;;;;;20.85;10.43;;;;;;;2.57;100.00;98321.97;10300042;28;20138;-68
2023/12/23 13:11:23;;;;;;;15.55;9.23;;;;;;;3.19;100.00;98415.78;10267732;28;20500;-67
2023/12/23 13:16:24;;;;;;;10.48;4.10;;;;;;;3.19;100.00;98434.94;10273621;28;20550;-68
2023/12/23 13:21:26;;;;;;;4.80;2.80;;;;;;;3.18;100.00;98435.94;10229643;28;20525;-68
2023/12/23 13:26:26;;;;;;;3.55;2.28;;;;;;;3.23;100.00;98458.22;10315531;28;20097;-69
2023/12/23 13:31:28;;;;;;;3.92;2.22;;;;;;;3.00;100.00;98414.34;10306490;28;20066;-69
2023/12/23 13:36:29;;;;;;;10.57;2.83;;;;;;;3.39;100.00;98484.47;10271003;28;20132;-69
2023/12/23 13:41:30;;;;;;;6.38;3.10;;;;;;;3.46;100.00;98493.28;10292489;28;20096;-68
2023/12/23 13:46:31;;;;;;;11.43;3.65;;;;;;;3.51;100.00;98506.75;10277408;28;20039;-69
2023/12/23 13:51:32;;;;;;;19.23;4.07;;;;;;;3.51;100.00;98525.13;10269601;28;20057;-68
2023/12/23 13:56:32;;;;;;;11.27;3.67;;;;;;;3.47;100.00;98542.19;10245121;29;20043;-64
2023/12/23 14:01:33;;;;;;;6.55;2.88;;;;;;;3.40;100.00;98544.66;10326865;28;20049;-69
2023/12/23 14:06:34;;;;;;;5.88;2.70;;;;;;;3.38;100.00;98554.50;10233734;28;20534;-69
2023/12/23 14:11:35;;;;;;;7.22;3.38;;;;;;;3.37;100.00;98563.34;10235330;28;20051;-66
2023/12/23 14:16:36;;;;;;;8.00;3.67;;;;;;;3.35;100.00;98573.22;10249909;29;20097;-68
2023/12/23 14:21:37;;;;;;;9.75;5.38;;;;;;;3.17;100.00;98560.25;10269375;28;20053;-68
2023/12/23 14:26:38;;;;;;;11.18;5.70;;;;;;;3.23;100.00;98594.69;10328485;28;20488;-68
2023/12/23 14:31:39;;;;;;;10.20;6.50;;;;;;;3.16;100.00;98595.34;10305744;28;20067;-67
2023/12/23 14:36:42;;;;;;;14.65;6.28;;;;;;;2.68;100.00;98518.25;10247554;28;20143;-68
2023/12/23 14:41:43;;;;;;;45.50;33.75;;;;;;;3.12;100.00;98577.47;10338110;28;20048;-68
2023/12/23 14:46:44;;;;;;;34.90;26.23;;;;;;;2.96;100.00;98563.38;10206700;29;20703;-68
2023/12/23 14:51:44;;;;;;;12.50;7.35;;;;;;;3.02;100.00;98603.88;10208894;29;20050;-68
2023/12/23 14:56:45;;;;;;;12.95;5.90;;;;;;;2.82;100.00;98618.25;10223046;28;20043;-69
2023/12/23 15:01:46;;;;;;;14.80;7.18;;;;;;;2.82;100.00;98597.28;10209532;29;20052;-68
2023/12/23 15:06:47;;;;;;;16.65;6.57;;;;;;;2.86;100.00;98612.53;10209323;29;20048;-67
2023/12/23 15:11:48;;;;;;;9.45;4.47;;;;;;;2.74;100.00;98617.25;10223967;28;20047;-67
2023/12/23 15:16:48;;;;;;;5.53;3.30;;;;;;;2.63;100.00;98629.81;10415906;28;20045;-68
2023/12/23 15:21:50;;;;;;;9.98;5.03;;;;;;;2.77;100.00;98654.63;10264111;28;20056;-68
2023/12/23 15:26:51;;;;;;;6.43;2.90;;;;;;;2.88;100.00;98644.66;10407428;28;20045;-67
2023/12/23 15:31:52;;;;;;;4.20;2.40;;;;;;;2.98;100.00;98632.22;10368059;28;20062;-67
2023/12/23 15:36:52;;;;;;;5.57;2.35;;;;;;;2.91;100.00;98586.63;10206767;29;20056;-68
2023/12/23 15:41:53;;;;;;;3.70;2.00;;;;;;;3.36;100.00;98622.09;10207865;29;20491;-68
2023/12/23 15:46:54;;;;;;;3.92;2.10;;;;;;;3.29;100.00;98620.25;10208087;29;20507;-68
2023/12/23 15:51:55;;;;;;;5.53;2.58;;;;;;;3.09;100.00;98607.47;10207400;29;20048;-67
2023/12/23 15:56:56;;;;;;;5.20;2.35;;;;;;;2.86;100.00;98603.84;10207714;29;20082;-67
2023/12/23 16:01:57;;;;;;;5.15;2.55;;;;;;;3.00;100.00;98626.00;10245300;28;20047;-69
2023/12/23 16:06:58;;;;;;;4.03;1.73;;;;;;;2.65;100.00;98536.94;10280657;28;20051;-67
2023/12/23 16:11:59;;;;;;;2.30;1.45;;;;;;;2.87;100.00;98580.09;10265941;28;20121;-68
2023/12/23 16:16:59;;;;;;;5.05;1.67;;;;;;;2.89;100.00;98579.91;10255999;28;20089;-69
2023/12/23 16:22:00;;;;;;;3.47;1.65;;;;;;;2.88;100.00;98586.16;10223446;29;20040;-68
2023/12/23 16:27:01;;;;;;;4.78;2.00;;;;;;;2.61;100.00;98564.47;10258083;28;20408;-69
2023/12/23 16:32:02;;;;;;;3.22;1.45;;;;;;;2.63;100.00;98565.13;10271455;28;20526;-70
2023/12/23 16:37:04;;;;;;;6.28;1.48;;;;;;;2.68;100.00;98554.97;10340495;28;20139;-69
2023/12/23 16:42:05;;;;;;;14.60;1.85;;;;;;;2.62;100.00;98554.78;10248058;28;20153;-69
2023/12/23 16:47:05;;;;;;;3.47;1.58;;;;;;;2.55;100.00;98531.03;10231036;28;20130;-69
2023/12/23 16:52:06;;;;;;;3.90;1.15;;;;;;;2.77;100.00;98563.66;10271743;28;20041;-69
2023/12/23 16:57:07;;;;;;;8.00;1.48;;;;;;;2.38;100.00;98540.66;10248916;28;20067;-69
2023/12/23 17:02:08;;;;;;;13.25;4.95;;;;;;;2.39;100.00;98534.41;10264090;28;20524;-70
2023/12/23 17:07:09;;;;;;;8.63;3.15;;;;;;;2.33;100.00;98527.19;10275723;28;20035;-69
2023/12/23 17:12:10;;;;;;;5.35;1.88;;;;;;;2.21;100.00;98508.34;10275085;28;20051;-70
2023/12/23 17:17:11;;;;;;;4.28;2.13;;;;;;;2.21;100.00;98542.38;10246248;28;20044;-69
2023/12/23 17:22:11;;;;;;;6.00;2.45;;;;;;;1.98;100.00;98521.22;10251216;28;20047;-69
2023/12/23 17:27:12;;;;;;;12.95;3.28;;;;;;;1.93;100.00;98510.38;10265728;28;20463;-69
2023/12/23 17:32:13;;;;;;;5.30;2.20;;;;;;;1.88;100.00;98517.06;10260891;28;20517;-69
2023/12/23 17:37:14;;;;;;;5.47;3.00;;;;;;;1.75;100.00;98500.00;10295844;28;20066;-69
2023/12/23 17:42:15;;;;;;;8.25;2.95;;;;;;;1.88;100.00;98536.22;10260586;28;20128;-69
2023/12/23 17:47:16;;;;;;;6.03;2.90;;;;;;;1.83;100.00;98549.78;10416202;28;20467;-69
2023/12/23 17:52:17;;;;;;;7.00;3.85;;;;;;;1.72;100.00;98531.72;10419541;28;20033;-69
2023/12/23 17:57:18;;;;;;;6.60;3.63;;;;;;;1.70;100.00;98536.28;10419161;28;20487;-69
2023/12/23 18:02:19;;;;;;;7.57;3.92;;;;;;;1.53;100.00;98513.63;10418607;28;20128;-69
2023/12/23 18:07:20;;;;;;;6.85;4.10;;;;;;;1.63;100.00;98514.34;10418458;28;20501;-69
2023/12/23 18:12:21;;;;;;;7.90;4.95;;;;;;;1.57;100.00;98504.50;10418741;28;20033;-68
2023/12/23 18:17:22;;;;;;;7.57;4.45;;;;;;;1.46;100.00;98502.94;10418541;28;20045;-69
2023/12/23 18:22:23;;;;;;;9.00;5.13;;;;;;;0.96;100.00;98430.41;10416574;28;20041;-69
2023/12/23 18:27:23;;;;;;;12.10;6.55;;;;;;;1.42;100.00;98496.41;10398216;28;20048;-69
2023/12/23 18:32:24;;;;;;;9.77;6.00;;;;;;;1.42;100.00;98480.69;10299462;28;20466;-69
2023/12/23 18:37:25;;;;;;;9.27;6.18;;;;;;;1.44;100.00;98475.31;10327600;28;20140;-69
2023/12/23 18:42:26;;;;;;;10.73;6.15;;;;;;;1.22;100.00;98440.03;10416909;28;20042;-69
2023/12/23 18:47:27;;;;;;;10.82;6.70;;;;;;;1.19;100.00;98435.13;10234732;28;20048;-69
2023/12/23 18:52:27;;;;;;;10.50;6.50;;;;;;;1.12;100.00;98442.75;10209644;29;20044;-69
2023/12/23 18:57:28;;;;;;;11.68;7.75;;;;;;;1.01;100.00;98422.09;10209349;29;20039;-69
2023/12/23 19:02:29;;;;;;;15.73;7.40;;;;;;;1.17;100.00;98416.97;10236126;28;20047;-69
2023/12/23 19:07:30;;;;;;;11.32;7.75;;;;;;;0.84;100.00;98354.03;10307986;28;20404;-69
2023/12/23 19:12:31;;;;;;;12.38;7.78;;;;;;;1.19;100.00;98425.47;10248929;28;20138;-69
2023/12/23 19:17:32;;;;;;;10.40;6.82;;;;;;;1.10;100.00;98426.41;10248245;28;20043;-69
2023/12/23 19:22:32;;;;;;;11.95;7.38;;;;;;;0.67;100.00;98383.66;10247867;28;20047;-69
2023/12/23 19:27:34;;;;;;;10.48;7.55;;;;;;;0.96;100.00;98408.66;10248223;28;20043;-69
2023/12/23 19:32:39;;;;;;;11.65;7.30;;;;;;;0.71;100.00;98376.31;10288836;28;20064;-69
2023/12/23 19:37:40;;;;;;;9.75;6.75;;;;;;;0.66;100.00;98397.72;10208606;28;20094;-69
2023/12/23 19:42:41;;;;;;;14.40;7.13;;;;;;;0.41;100.00;98387.06;10207648;29;20473;-69
2023/12/23 19:47:43;;;;;;;17.50;8.05;;;;;;;0.38;100.00;98363.84;10265751;28;20052;-69
2023/12/23 19:52:44;;;;;;;13.18;7.05;;;;;;;0.43;100.00;98343.31;10206899;29;20044;-69
2023/12/23 19:57:45;;;;;;;13.25;7.40;;;;;;;0.59;100.00;98319.09;10205991;29;20036;-70
2023/12/23 20:02:46;;;;;;;11.75;7.22;;;;;;;0.71;100.00;98309.19;10208160;29;20052;-69
2023/12/23 20:07:48;;;;;;;10.32;7.43;;;;;;;0.81;100.00;98315.16;10206448;29;20047;-69
2023/12/23 20:12:48;;;;;;;10.85;6.57;;;;;;;0.85;100.00;98310.44;10207493;29;20040;-69
2023/12/23 20:17:49;;;;;;;11.80;7.22;;;;;;;0.95;100.00;98323.38;10206608;29;20052;-70
2023/12/23 20:22:50;;;;;;;12.02;6.60;;;;;;;0.63;100.00;98267.38;10206629;29;20511;-69
2023/12/23 20:27:51;;;;;;;12.45;6.90;;;;;;;0.83;100.00;98279.19;10225287;28;20071;-69
2023/12/23 20:32:52;;;;;;;12.43;6.22;;;;;;;0.44;100.00;98234.44;10345583;28;20136;-69
2023/12/23 20:37:52;;;;;;;10.45;6.22;;;;;;;0.45;100.00;98221.22;10253937;28;20499;-69
2023/12/23 20:42:53;;;;;;;9.25;6.10;;;;;;;0.55;100.00;98228.94;10321050;28;20047;-69
2023/12/23 20:47:54;;;;;;;11.55;5.60;;;;;;;0.74;100.00;98240.13;10244633;28;20051;-69
2023/12/23 20:52:55;;;;;;;8.77;5.18;;;;;;;0.71;100.00;98219.53;10412429;28;20068;-69
2023/12/23 20:57:56;;;;;;;7.20;5.03;;;;;;;0.72;100.00;98206.31;10331396;28;20046;-69
2023/12/23 21:02:58;;;;;;;10.05;5.10;;;;;;;0.88;100.00;98245.56;10315501;28;20103;-69
2023/12/23 21:07:59;;;;;;;8.52;4.57;;;;;;;0.97;100.00;98224.69;10413009;28;20052;-69
2023/12/23 21:13:00;;;;;;;8.85;4.57;;;;;;;1.00;100.00;98235.66;10412205;28;20037;-69
2023/12/23 21:18:00;;;;;;;8.43;4.53;;;;;;;1.08;100.00;98242.72;10314739;28;20135;-70
2023/12/23 21:23:01;;;;;;;8.13;4.30;;;;;;;0.99;100.00;98217.50;10211316;29;20055;-70
2023/12/23 21:28:02;;;;;;;6.63;3.50;;;;;;;1.03;100.00;98221.44;10212756;29;20447;-69
2023/12/23 21:33:03;;;;;;;6.10;3.75;;;;;;;1.02;100.00;98222.44;10211018;29;20040;-69
2023/12/23 21:38:05;;;;;;;5.60;3.58;;;;;;;1.05;100.00;98204.63;10211899;29;20063;-69
2023/12/23 21:43:06;;;;;;;5.75;3.50;;;;;;;1.13;100.00;98149.72;10211887;29;20051;-70
2023/12/23 21:48:07;;;;;;;5.10;2.83;;;;;;;1.29;100.00;98130.63;10211147;29;20058;-69
2023/12/23 21:53:11;;;;;;;6.22;2.67;;;;;;;1.57;100.00;98117.19;10211467;28;20090;-69
2023/12/23 21:58:12;;;;;;;4.18;2.30;;;;;;;1.73;100.00;98135.47;10211359;29;20044;-69
2023/12/23 22:03:13;;;;;;;3.72;2.10;;;;;;;1.77;100.00;98131.56;10209541;29;20105;-69
2023/12/23 22:08:13;;;;;;;5.00;2.38;;;;;;;1.57;100.00;98080.56;10211468;29;20122;-70
2023/12/23 22:13:14;;;;;;;4.68;2.47;;;;;;;1.51;100.00;98037.56;10210607;29;20097;-69
2023/12/23 22:18:15;;;;;;;8.27;2.20;;;;;;;1.94;100.00;98076.53;10210858;29;20039;-69
2023/12/23 22:23:16;;;;;;;5.10;2.00;;;;;;;1.97;100.00;98069.16;10210835;29;20051;-69
2023/12/23 22:28:16;;;;;;;14.18;2.35;;;;;;;1.74;100.00;97989.75;10210544;29;20066;-70
2023/12/23 22:33:19;;;;;;;5.70;2.38;;;;;;;2.00;100.00;98015.63;10209610;29;20043;-69
2023/12/23 22:38:20;;;;;;;4.30;1.88;;;;;;;2.05;100.00;98023.81;10210295;29;20055;-69
2023/12/23 22:43:21;;;;;;;3.22;1.65;;;;;;;2.09;100.00;98022.47;10209974;29;20136;-69
2023/12/23 22:48:22;;;;;;;3.85;1.70;;;;;;;1.97;100.00;98002.88;10210106;29;20079;-69
2023/12/23 22:53:23;;;;;;;4.68;1.73;;;;;;;2.16;100.00;98041.75;10209763;29;20074;-69
2023/12/23 22:58:24;;;;;;;5.60;1.40;;;;;;;2.35;100.00;98111.25;10209120;29;20530;-69
2023/12/23 23:03:25;;;;;;;5.22;1.50;;;;;;;2.31;100.00;98153.69;10209603;29;20519;-69
2023/12/23 23:08:25;;;;;;;6.13;1.75;;;;;;;2.38;100.00;98196.56;10208857;29;20122;-70
2023/12/23 23:13:26;;;;;;;2.97;1.38;;;;;;;2.33;100.00;98207.53;10209737;29;20571;-69